createdAt,value
2022-08-05T00:00:46.223Z,24.19
2022-08-05T00:03:15.596Z,24.13
2022-08-05T00:06:06.385Z,24.08
2022-08-05T00:08:34.625Z,24.02
2022-08-05T00:11:01.334Z,23.97
2022-08-05T00:13:38.295Z,23.99
2022-08-05T00:16:06.306Z,23.95
2022-08-05T00:18:32.859Z,23.92
2022-08-05T00:20:57.084Z,23.91
2022-08-05T00:23:44.340Z,23.88
2022-08-05T00:26:07.336Z,23.78
2022-08-05T00:28:31.049Z,23.73
2022-08-05T00:30:56.755Z,23.67
2022-08-05T00:34:55.523Z,23.64
2022-08-05T00:36:16.530Z,23.59
2022-08-05T00:38:55.849Z,23.56
2022-08-05T00:41:52.165Z,23.54
2022-08-05T00:44:16.694Z,23.49
2022-08-05T00:46:42.634Z,23.48
2022-08-05T00:49:07.802Z,23.39
2022-08-05T00:51:50.559Z,23.38
2022-08-05T00:54:15.746Z,23.30
2022-08-05T00:56:47.061Z,22.95
2022-08-05T00:59:15.358Z,22.97
2022-08-05T01:01:42.637Z,23.20
2022-08-05T01:04:14.253Z,23.27
2022-08-05T01:06:39.392Z,23.29
2022-08-05T01:09:06.303Z,23.29
2022-08-05T01:11:37.217Z,23.24
2022-08-05T01:14:15.346Z,23.33
2022-08-05T01:16:47.252Z,23.26
2022-08-05T01:19:56.470Z,23.25
2022-08-05T01:22:41.975Z,23.21
2022-08-05T01:25:53.513Z,23.29
2022-08-05T01:28:28.353Z,23.25
2022-08-05T01:30:58.028Z,23.25
2022-08-05T01:33:26.330Z,23.32
2022-08-05T01:35:53.262Z,23.35
2022-08-05T01:38:27.016Z,23.40
2022-08-05T01:40:55.757Z,23.23
2022-08-05T01:43:24.118Z,23.16
2022-08-05T01:45:56.111Z,23.31
2022-08-05T01:48:22.284Z,23.12
2022-08-05T01:50:50.980Z,23.27
2022-08-05T01:53:54.993Z,23.29
2022-08-05T01:56:04.923Z,23.29
2022-08-05T01:58:41.070Z,23.34
2022-08-05T02:01:16.139Z,23.34
2022-08-05T02:03:50.381Z,23.23
2022-08-05T02:06:37.825Z,23.19
2022-08-05T02:08:59.411Z,23.26
2022-08-05T02:11:24.112Z,23.34
2022-08-05T02:14:12.490Z,23.14
2022-08-05T02:16:46.903Z,23.20
2022-08-05T02:19:27.232Z,23.17
2022-08-05T02:21:57.380Z,23.18
2022-08-05T02:24:29.251Z,23.25
2022-08-05T02:26:57.888Z,23.30
2022-08-05T02:29:59.966Z,23.34
2022-08-05T02:32:23.913Z,23.20
2022-08-05T02:34:54.933Z,23.26
2022-08-05T02:37:20.578Z,23.32
2022-08-05T02:39:47.725Z,23.33
2022-08-05T02:42:25.827Z,23.31
2022-08-05T02:44:52.728Z,23.29
2022-08-05T02:47:18.723Z,23.30
2022-08-05T02:49:44.571Z,23.22
2022-08-05T02:52:25.793Z,23.25
2022-08-05T02:54:54.589Z,23.26
2022-08-05T02:58:11.823Z,23.20
2022-08-05T03:00:06.841Z,23.23
2022-08-05T03:02:36.645Z,22.99
2022-08-05T03:05:01.308Z,22.92
2022-08-05T03:08:00.670Z,23.00
2022-08-05T03:10:13.406Z,23.08
2022-08-05T03:12:39.894Z,23.03
2022-08-05T03:15:06.984Z,23.10
2022-08-05T03:17:34.400Z,23.03
2022-08-05T03:20:07.128Z,23.08
2022-08-05T03:22:34.113Z,23.02
2022-08-05T03:25:02.097Z,23.09
2022-08-05T03:27:57.957Z,23.06
2022-08-05T03:30:20.877Z,23.08
2022-08-05T03:32:56.460Z,23.10
2022-08-05T03:35:20.540Z,23.13
2022-08-05T03:37:46.002Z,23.09
2022-08-05T03:40:13.159Z,23.01
2022-08-05T03:42:41.583Z,23.17
2022-08-05T03:45:22.057Z,23.07
2022-08-05T03:47:46.692Z,23.17
2022-08-05T03:50:14.610Z,23.09
2022-08-05T03:55:50.834Z,23.25
2022-08-05T03:56:04.593Z,23.09
2022-08-05T03:58:28.938Z,23.22
2022-08-05T04:00:54.691Z,23.19
2022-08-05T04:03:28.594Z,23.04
2022-08-05T04:05:54.731Z,22.90
2022-08-05T04:08:34.712Z,22.92
2022-08-05T04:11:01.060Z,22.95
2022-08-05T04:13:25.553Z,23.02
2022-08-05T04:16:03.353Z,23.10
2022-08-05T04:18:29.019Z,23.01
2022-08-05T04:20:59.095Z,23.08
2022-08-05T04:24:04.910Z,23.15
2022-08-05T04:26:09.220Z,23.18
2022-08-05T04:28:37.372Z,23.14
2022-08-05T04:31:15.116Z,23.16
2022-08-05T04:34:19.341Z,23.31
2022-08-05T04:36:46.610Z,23.40
2022-08-05T04:39:08.906Z,23.36
2022-08-05T04:41:37.192Z,23.38
2022-08-05T04:44:02.501Z,23.49
2022-08-05T04:46:33.572Z,23.35
2022-08-05T04:48:58.734Z,23.54
2022-08-05T04:51:24.083Z,23.73
2022-08-05T04:53:48.500Z,23.63
2022-08-05T04:56:33.742Z,23.84
2022-08-05T04:58:56.045Z,24.00
2022-08-05T05:02:05.970Z,24.16
2022-08-05T05:04:04.688Z,24.28
2022-08-05T05:06:39.000Z,24.29
2022-08-05T05:09:08.017Z,24.21
2022-08-05T05:11:41.593Z,24.33
2022-08-05T05:14:16.319Z,24.33
2022-08-05T05:16:40.071Z,24.47
2022-08-05T05:19:18.671Z,24.59
2022-08-05T05:21:44.759Z,24.68
2022-08-05T05:24:10.409Z,24.85
2022-08-05T05:26:34.954Z,24.84
2022-08-05T05:28:59.332Z,24.90
2022-08-05T05:31:23.277Z,24.59
2022-08-05T05:33:59.697Z,24.79
2022-08-05T05:36:25.612Z,24.67
2022-08-05T05:38:54.033Z,24.85
2022-08-05T05:41:18.520Z,24.57
2022-08-05T05:43:56.872Z,24.89
2022-08-05T05:46:24.180Z,24.81
2022-08-05T05:48:49.172Z,25.07
2022-08-05T05:51:15.587Z,24.88
2022-08-05T05:53:54.323Z,25.03
2022-08-05T05:56:26.200Z,25.05
2022-08-05T05:58:57.217Z,25.00
2022-08-05T06:01:30.374Z,24.94
2022-08-05T06:04:03.938Z,24.84
2022-08-05T06:06:31.029Z,24.57
2022-08-05T06:08:55.200Z,24.45
2022-08-05T06:11:19.315Z,24.37
2022-08-05T06:13:50.533Z,24.56
2022-08-05T06:16:28.192Z,24.48
2022-08-05T06:18:55.831Z,24.41
2022-08-05T06:21:23.871Z,24.47
2022-08-05T06:24:00.085Z,24.32
2022-08-05T06:26:25.436Z,24.02
2022-08-05T06:28:57.094Z,24.40
2022-08-05T06:31:22.028Z,24.57
2022-08-05T06:34:07.263Z,24.60
2022-08-05T06:36:30.015Z,25.03
2022-08-05T06:39:13.847Z,25.21
2022-08-05T06:41:41.287Z,25.05
2022-08-05T06:44:06.820Z,25.44
2022-08-05T06:46:30.727Z,25.46
2022-08-05T06:48:58.856Z,25.64
2022-08-05T06:51:29.084Z,26.07
2022-08-05T06:53:54.088Z,26.04
2022-08-05T06:56:26.313Z,26.37
2022-08-05T06:58:50.684Z,26.23
2022-08-05T07:01:15.863Z,26.47
2022-08-05T07:03:44.880Z,26.10
2022-08-05T07:06:14.422Z,26.13
2022-08-05T07:08:39.015Z,26.45
2022-08-05T07:11:06.229Z,26.00
2022-08-05T07:13:59.839Z,26.25
2022-08-05T07:18:01.402Z,25.79
2022-08-05T07:20:05.819Z,26.09
2022-08-05T07:22:10.688Z,26.18
2022-08-05T07:24:43.721Z,26.01
2022-08-05T07:27:16.049Z,26.36
2022-08-05T07:30:23.909Z,26.21
2022-08-05T07:32:26.291Z,26.04
2022-08-05T07:34:50.187Z,26.07
2022-08-05T07:37:21.872Z,26.06
2022-08-05T07:40:27.050Z,26.07
2022-08-05T07:42:33.776Z,25.59
2022-08-05T07:44:57.796Z,25.84
2022-08-05T07:47:25.827Z,25.96
2022-08-05T07:49:54.216Z,25.76
2022-08-05T07:52:18.419Z,24.94
2022-08-05T07:54:47.625Z,25.25
2022-08-05T07:57:50.581Z,25.47
2022-08-05T07:59:57.788Z,25.34
2022-08-05T08:02:31.241Z,24.97
2022-08-05T08:05:12.533Z,24.94
2022-08-05T08:07:39.425Z,25.23
2022-08-05T08:10:03.768Z,25.37
2022-08-05T08:12:37.959Z,24.99
2022-08-05T08:15:15.842Z,24.81
2022-08-05T08:17:46.261Z,25.27
2022-08-05T08:20:42.795Z,24.93
2022-08-05T08:23:03.299Z,24.99
2022-08-05T08:26:00.031Z,24.93
2022-08-05T08:28:18.779Z,24.96
2022-08-05T08:30:56.868Z,24.47
2022-08-05T08:33:22.776Z,24.47
2022-08-05T08:35:52.691Z,24.51
2022-08-05T08:38:18.247Z,24.57
2022-08-05T08:41:01.099Z,24.59
2022-08-05T08:45:17.009Z,24.48
2022-08-05T08:46:15.645Z,24.55
2022-08-05T08:49:06.077Z,24.75
2022-08-05T08:52:03.127Z,24.56
2022-08-05T08:54:17.556Z,24.75
2022-08-05T08:56:47.907Z,24.77
2022-08-05T08:59:19.333Z,24.57
2022-08-05T09:01:44.929Z,24.67
2022-08-05T09:04:23.185Z,24.78
2022-08-05T09:06:54.565Z,24.76
2022-08-05T09:09:18.373Z,24.87
2022-08-05T09:11:53.091Z,24.90
2022-08-05T09:14:57.953Z,24.93
2022-08-05T09:17:09.448Z,24.72
2022-08-05T09:20:01.826Z,24.77
2022-08-05T09:22:31.810Z,24.54
2022-08-05T09:25:00.423Z,24.62
2022-08-05T09:28:04.081Z,24.72
2022-08-05T09:30:19.122Z,24.55
2022-08-05T09:32:47.376Z,24.57
2022-08-05T09:35:26.303Z,24.84
2022-08-05T09:38:16.459Z,25.05
2022-08-05T09:40:51.857Z,25.16
2022-08-05T09:43:40.588Z,25.12
2022-08-05T09:46:11.975Z,25.15
2022-08-05T09:48:39.716Z,24.80
2022-08-05T09:51:15.352Z,24.82
2022-08-05T09:53:54.327Z,24.97
2022-08-05T09:56:27.092Z,24.78
2022-08-05T09:59:04.093Z,24.76
2022-08-05T10:01:32.595Z,24.70
2022-08-05T10:04:00.434Z,24.59
2022-08-05T10:06:25.821Z,24.61
2022-08-05T10:08:50.291Z,24.76
2022-08-05T10:11:18.968Z,24.74
2022-08-05T10:13:47.836Z,24.70
2022-08-05T10:16:33.975Z,24.68
2022-08-05T10:18:58.489Z,24.63
2022-08-05T10:21:23.020Z,24.86
2022-08-05T10:23:59.375Z,24.79
2022-08-05T10:26:32.759Z,24.82
2022-08-05T10:28:57.798Z,24.84
2022-08-05T10:32:53.603Z,24.81
2022-08-05T10:34:08.144Z,25.11
2022-08-05T10:36:32.190Z,25.23
2022-08-05T10:39:10.305Z,24.92
2022-08-05T10:41:47.805Z,24.57
2022-08-05T10:44:15.012Z,24.86
2022-08-05T10:46:50.945Z,25.13
2022-08-05T10:49:18.647Z,25.11
2022-08-05T10:52:00.237Z,25.54
2022-08-05T10:54:56.786Z,25.78
2022-08-05T10:57:31.701Z,26.17
2022-08-05T11:00:19.842Z,26.25
2022-08-05T11:03:24.419Z,26.41
2022-08-05T11:06:15.450Z,26.70
2022-08-05T11:09:16.723Z,26.48
2022-08-05T11:11:52.811Z,26.88
2022-08-05T11:14:57.886Z,27.43
2022-08-05T11:17:58.705Z,27.28
2022-08-05T11:20:41.756Z,27.72
2022-08-05T11:24:04.787Z,27.53
2022-08-05T11:26:28.857Z,27.86
2022-08-05T11:29:06.854Z,28.65
2022-08-05T11:31:58.660Z,28.26
2022-08-05T11:34:38.485Z,29.11
2022-08-05T11:37:02.569Z,29.11
2022-08-05T11:39:55.259Z,28.59
2022-08-05T11:42:28.018Z,29.16
2022-08-05T11:44:56.336Z,29.53
2022-08-05T11:47:49.340Z,29.96
2022-08-05T11:50:09.983Z,29.65
2022-08-05T11:52:38.289Z,29.43
2022-08-05T11:55:07.603Z,29.92
2022-08-05T11:57:39.331Z,30.39
2022-08-05T12:00:30.421Z,29.72
2022-08-05T12:02:54.385Z,30.29
2022-08-05T12:05:36.382Z,30.52
2022-08-05T12:08:11.254Z,31.12
2022-08-05T12:10:43.839Z,30.75
2022-08-05T12:13:15.491Z,30.93
2022-08-05T12:15:45.342Z,31.75
2022-08-05T12:18:20.559Z,31.53
2022-08-05T12:20:44.543Z,32.10
2022-08-05T12:23:10.483Z,32.39
2022-08-05T12:25:50.343Z,32.03
2022-08-05T12:28:15.089Z,32.07
2022-08-05T12:30:45.715Z,31.77
2022-08-05T12:33:27.806Z,31.75
2022-08-05T12:35:53.999Z,31.91
2022-08-05T12:38:18.016Z,32.30
2022-08-05T12:40:46.286Z,32.66
2022-08-05T12:43:10.037Z,33.03
2022-08-05T12:45:42.724Z,32.08
2022-08-05T12:48:27.369Z,32.21
2022-08-05T12:52:10.299Z,32.49
2022-08-05T12:54:03.325Z,32.43
2022-08-05T12:56:35.405Z,31.74
2022-08-05T12:59:21.121Z,32.04
2022-08-05T13:02:07.354Z,32.00
2022-08-05T13:04:34.752Z,32.02
2022-08-05T13:07:10.931Z,32.35
2022-08-05T13:09:41.268Z,31.63
2022-08-05T13:12:16.101Z,31.63
2022-08-05T13:14:42.617Z,31.77
2022-08-05T13:17:11.487Z,30.72
2022-08-05T13:19:51.631Z,31.37
2022-08-05T13:22:28.503Z,31.76
2022-08-05T13:24:58.113Z,31.64
2022-08-05T13:27:37.458Z,30.91
2022-08-05T13:30:34.254Z,30.49
2022-08-05T13:32:50.616Z,31.04
2022-08-05T13:35:31.333Z,31.12
2022-08-05T13:38:04.866Z,30.88
2022-08-05T13:40:47.977Z,31.12
2022-08-05T13:43:13.759Z,30.61
2022-08-05T13:45:45.990Z,30.09
2022-08-05T13:48:57.792Z,30.64
2022-08-05T13:50:56.204Z,30.75
2022-08-05T13:53:20.312Z,30.58
2022-08-05T13:55:50.104Z,30.78
2022-08-05T13:58:30.972Z,30.48
2022-08-05T14:00:54.977Z,30.54
2022-08-05T14:03:18.693Z,30.22
2022-08-05T14:06:24.595Z,30.06
2022-08-05T14:08:27.468Z,30.15
2022-08-05T14:10:52.101Z,30.56
2022-08-05T14:13:16.284Z,30.79
2022-08-05T14:16:08.865Z,30.86
2022-08-05T14:18:24.183Z,31.05
2022-08-05T14:20:48.683Z,30.90
2022-08-05T14:23:12.616Z,31.37
2022-08-05T14:25:45.100Z,30.60
2022-08-05T14:28:09.145Z,30.74
2022-08-05T14:30:49.867Z,30.84
2022-08-05T14:33:22.872Z,30.75
2022-08-05T14:35:51.918Z,30.89
2022-08-05T14:38:32.558Z,31.11
2022-08-05T14:41:01.129Z,30.43
2022-08-05T14:43:59.243Z,30.48
2022-08-05T14:46:08.860Z,30.15
2022-08-05T14:48:33.756Z,30.29
2022-08-05T14:50:57.852Z,30.28
2022-08-05T14:53:21.636Z,29.66
2022-08-05T14:55:52.091Z,29.89
2022-08-05T14:58:17.796Z,29.82
2022-08-05T15:00:59.467Z,29.62
2022-08-05T15:03:24.011Z,29.39
2022-08-05T15:06:06.907Z,28.53
2022-08-05T15:08:37.967Z,28.58
2022-08-05T15:11:16.058Z,28.78
2022-08-05T15:13:46.049Z,28.63
2022-08-05T15:16:14.404Z,28.12
2022-08-05T15:18:38.630Z,28.06
2022-08-05T15:21:07.400Z,27.31
2022-08-05T15:23:31.756Z,27.76
2022-08-05T15:25:59.724Z,27.47
2022-08-05T15:28:27.335Z,27.62
2022-08-05T15:30:53.595Z,27.52
2022-08-05T15:34:04.126Z,26.30
2022-08-05T15:36:03.622Z,26.57
2022-08-05T15:38:34.708Z,26.42
2022-08-05T15:41:22.322Z,25.87
2022-08-05T15:43:45.935Z,26.13
2022-08-05T15:46:12.316Z,25.89
2022-08-05T15:48:36.779Z,25.81
2022-08-05T15:51:03.601Z,25.71
2022-08-05T15:53:38.293Z,25.71
2022-08-05T15:56:14.417Z,26.15
2022-08-05T15:58:38.232Z,26.04
2022-08-05T16:01:11.560Z,25.94
2022-08-05T16:03:42.678Z,25.89
2022-08-05T16:06:07.211Z,25.92
2022-08-05T16:08:35.551Z,25.88
2022-08-05T16:10:59.552Z,25.40
2022-08-05T16:13:24.102Z,25.74
2022-08-05T16:15:58.005Z,25.75
2022-08-05T16:18:21.792Z,25.81
2022-08-05T16:20:54.147Z,25.69
2022-08-05T16:23:17.830Z,25.36
2022-08-05T16:25:41.647Z,25.14
2022-08-05T16:28:06.579Z,24.81
2022-08-05T16:30:34.220Z,24.58
2022-08-05T16:33:00.567Z,24.79
2022-08-05T16:35:27.567Z,24.77
2022-08-05T16:38:15.643Z,25.04
2022-08-05T16:40:37.722Z,24.77
2022-08-05T16:43:01.484Z,24.65
2022-08-05T16:46:03.790Z,24.60
2022-08-05T16:48:10.884Z,24.64
2022-08-05T16:50:49.388Z,24.19
2022-08-05T16:53:22.971Z,24.11
2022-08-05T16:55:56.381Z,24.48
2022-08-05T16:58:20.552Z,23.52
2022-08-05T17:00:44.366Z,24.11
2022-08-05T17:03:19.798Z,23.52
2022-08-05T17:05:44.152Z,23.27
2022-08-05T17:08:16.903Z,23.41
2022-08-05T17:11:00.416Z,23.14
2022-08-05T17:13:37.278Z,22.88
2022-08-05T17:16:28.114Z,22.66
2022-08-05T17:18:49.911Z,22.29
2022-08-05T17:21:13.640Z,22.56
2022-08-05T17:24:04.664Z,22.59
2022-08-05T17:26:24.697Z,22.01
2022-08-05T17:28:50.845Z,22.56
2022-08-05T17:31:24.658Z,21.67
2022-08-05T17:33:58.466Z,21.24
2022-08-05T17:36:33.682Z,21.08
2022-08-05T17:39:01.619Z,21.33
2022-08-05T17:42:18.901Z,20.77
2022-08-05T17:44:11.145Z,20.87
2022-08-05T17:46:35.016Z,20.43
2022-08-05T17:48:59.238Z,20.43
2022-08-05T17:51:23.196Z,20.26
2022-08-05T17:53:54.473Z,20.28
2022-08-05T17:56:20.016Z,20.53
2022-08-05T17:58:46.366Z,20.61
2022-08-05T18:01:10.192Z,20.54
2022-08-05T18:04:03.785Z,20.62
2022-08-05T18:06:18.475Z,20.26
2022-08-05T18:08:53.115Z,20.58
2022-08-05T18:11:24.550Z,20.65
2022-08-05T18:13:56.572Z,20.49
2022-08-05T18:16:23.493Z,20.78
2022-08-05T18:18:48.070Z,20.70
2022-08-05T18:21:19.959Z,20.42
2022-08-05T18:23:45.628Z,20.48
2022-08-05T18:26:10.733Z,20.08
2022-08-05T18:28:35.920Z,19.82
2022-08-05T18:30:59.760Z,20.02
2022-08-05T18:33:24.332Z,19.85
2022-08-05T18:35:59.971Z,20.02
2022-08-05T18:38:27.872Z,20.05
2022-08-05T18:41:57.226Z,20.10
2022-08-05T18:43:43.106Z,20.17
2022-08-05T18:46:12.736Z,20.01
2022-08-05T18:48:36.779Z,20.17
2022-08-05T18:52:02.937Z,20.16
2022-08-05T18:54:07.167Z,19.87
2022-08-05T18:56:32.684Z,20.03
2022-08-05T18:59:01.237Z,19.97
2022-08-05T19:01:33.212Z,19.99
2022-08-05T19:03:57.515Z,19.78
2022-08-05T19:06:22.400Z,19.82
2022-08-05T19:08:58.159Z,19.63
2022-08-05T19:11:28.532Z,19.78
2022-08-05T19:14:15.196Z,19.76
2022-08-05T19:16:47.289Z,19.53
2022-08-05T19:19:11.144Z,19.28
2022-08-05T19:21:36.742Z,19.38
2022-08-05T19:24:07.482Z,19.25
2022-08-05T19:26:32.976Z,19.08
2022-08-05T19:28:57.308Z,19.15
2022-08-05T19:31:22.888Z,19.17
2022-08-05T19:33:48.550Z,18.99
2022-08-05T19:36:20.716Z,18.88
2022-08-05T19:38:45.827Z,18.67
2022-08-05T19:41:12.331Z,18.81
2022-08-05T19:44:05.375Z,18.70
2022-08-05T19:46:29.460Z,18.67
2022-08-05T19:48:54.568Z,18.75
2022-08-05T19:52:04.524Z,18.71
2022-08-05T19:54:12.893Z,18.51
2022-08-05T19:56:50.821Z,18.55
2022-08-05T19:59:51.577Z,18.53
2022-08-05T20:02:01.476Z,18.56
2022-08-05T20:04:26.579Z,18.50
2022-08-05T20:06:51.820Z,18.50
2022-08-05T20:09:15.795Z,18.15
2022-08-05T20:11:41.303Z,18.14
2022-08-05T20:14:14.668Z,18.19
2022-08-05T20:16:42.017Z,18.34
2022-08-05T20:19:08.652Z,18.33
2022-08-05T20:21:32.541Z,18.34
2022-08-05T20:23:57.384Z,18.38
2022-08-05T20:26:22.091Z,18.24
2022-08-05T20:28:48.698Z,18.20
2022-08-05T20:31:12.617Z,18.24
2022-08-05T20:33:36.390Z,18.14
2022-08-05T20:36:02.284Z,18.20
2022-08-05T20:38:27.335Z,18.17
2022-08-05T20:40:52.592Z,18.21
2022-08-05T20:43:33.265Z,18.25
2022-08-05T20:46:03.301Z,18.20
2022-08-05T20:48:27.012Z,18.05
2022-08-05T20:50:50.914Z,18.00
2022-08-05T20:53:36.531Z,17.97
2022-08-05T20:56:08.838Z,17.93
2022-08-05T20:58:33.196Z,17.84
2022-08-05T21:00:57.069Z,17.85
2022-08-05T21:03:20.921Z,17.88
2022-08-05T21:05:53.505Z,17.88
2022-08-05T21:08:20.108Z,17.89
2022-08-05T21:10:48.990Z,17.76
2022-08-05T21:13:15.905Z,17.82
2022-08-05T21:15:40.985Z,17.89
2022-08-05T21:18:08.340Z,17.89
2022-08-05T21:20:34.927Z,17.77
2022-08-05T21:22:59.473Z,17.80
2022-08-05T21:25:25.420Z,17.78
2022-08-05T21:27:57.918Z,17.82
2022-08-05T21:30:22.039Z,17.76
2022-08-05T21:32:47.756Z,17.69
2022-08-05T21:35:18.126Z,17.76
2022-08-05T21:37:53.948Z,17.71
2022-08-05T21:40:17.712Z,17.74
2022-08-05T21:42:45.137Z,17.80
2022-08-05T21:45:10.762Z,17.78
2022-08-05T21:47:56.125Z,17.73
2022-08-05T21:50:20.362Z,17.74
2022-08-05T21:52:47.406Z,17.71
2022-08-05T21:55:11.695Z,17.72
2022-08-05T21:57:42.782Z,17.67
2022-08-05T22:00:12.257Z,17.72
2022-08-05T22:02:38.984Z,17.62
2022-08-05T22:05:04.312Z,17.60
2022-08-05T22:07:39.439Z,17.61
2022-08-05T22:10:12.353Z,17.50
2022-08-05T22:12:40.310Z,17.54
2022-08-05T22:15:16.587Z,17.56
2022-08-05T22:17:56.324Z,17.50
2022-08-05T22:20:23.682Z,17.36
2022-08-05T22:23:16.927Z,17.33
2022-08-05T22:26:11.366Z,17.25
2022-08-05T22:28:35.668Z,17.27
2022-08-05T22:31:05.578Z,17.32
2022-08-05T22:33:57.050Z,17.35
2022-08-05T22:36:15.038Z,17.22
2022-08-05T22:38:39.196Z,17.27
2022-08-05T22:41:09.550Z,17.19
2022-08-05T22:43:36.884Z,17.25
2022-08-05T22:46:08.826Z,17.23
2022-08-05T22:48:38.016Z,17.05
2022-08-05T22:51:01.929Z,17.07
2022-08-05T22:53:35.607Z,16.91
2022-08-05T22:55:59.906Z,16.92
2022-08-05T22:58:28.457Z,16.95
2022-08-05T23:00:52.565Z,16.98
2022-08-05T23:03:22.251Z,16.95
2022-08-05T23:06:06.180Z,16.63
2022-08-05T23:08:30.719Z,16.67
2022-08-05T23:10:56.073Z,16.71
2022-08-05T23:13:19.852Z,16.53
2022-08-05T23:15:43.859Z,16.60
2022-08-05T23:18:16.076Z,16.64
2022-08-05T23:20:43.040Z,16.56
2022-08-05T23:23:09.010Z,16.19
2022-08-05T23:25:52.568Z,16.27
2022-08-05T23:28:17.269Z,16.21
2022-08-05T23:30:43.831Z,16.19
2022-08-05T23:33:16.335Z,16.15
2022-08-05T23:35:52.006Z,16.22
2022-08-05T23:38:19.199Z,16.19
2022-08-05T23:40:49.843Z,16.08
2022-08-05T23:43:24.773Z,16.03
2022-08-05T23:45:58.025Z,16.14
2022-08-05T23:48:22.419Z,16.02
2022-08-05T23:50:51.528Z,16.03
2022-08-05T23:53:22.974Z,16.04
2022-08-05T23:55:47.056Z,15.89
2022-08-05T23:58:31.678Z,15.81
